Aérodrome :
LOGIN :

S'inscrire | Disclaimer

   EN    FR    IT 

 










Légende :    VFR   VFR Marginal   IFR   IFR Intensif   IFR Très Intensif
Visi : 
Plafond : 
>= 8 km
>= 3000ft
5 à 8 km
1000 à 3000 ft
1500m à 5 km
500 à 1000 ft
800 à 1500m
200 à 500 ft
< 800m
< 200 ft
Symboles :   Orages  Brouillard  Fortes neiges  Fortes précipitations  Vent > 20 kt
SIGMETs :   Divers  Orages  Givrage  Turbulence  Onde Orograph.  Cendres Volcan.







- Altitude de l'aérodrome : 1768 ft


LEHC - Huesca Pirineos

DERNIER METAR :
  • 142100Z AUTO 06006KT CAVOK 13/10 Q1023

METARs EXPIRÉS :
  • 142030Z AUTO 06006KT CAVOK 13/10 Q1022
  • 142000Z AUTO 05003KT 020V080 CAVOK 12/10 Q1022
  • 141930Z AUTO 03003KT 010V070 CAVOK 12/10 Q1022
  • 141900Z AUTO 06004KT 020V080 CAVOK 13/10 Q1023
  • 141830Z AUTO 07004KT CAVOK 13/10 Q1023

TAF TAF LEHC
Valide du 14 à 09h jusqu'au 15 à 09h UTC


140800Z 1409/1509 VRB03KT 9999 FEW030 TX18/1413Z TN11/1505Z
BECMG 1409/1412 09009KT
Pas de NOTAMs connus pour ce terrain.
1 SIGMET publié pour la FIR Madrid (LECM) :
 
Orages noyés dans la masse
LECM SIGMET 2 VALID 142025/150000 LEVA
LECM MADRID FIR/UIR EMBD TS OBS AT 2025Z S OF LINE N3617 W00322 - N3644 W00155 TOP FL360 STNR NC=



MET'MAP, la Météo Aéronautique d'un coup d'oeil ! - Copyright ORBIFLY Décembre 2007 - Disclaimer

ORBIFLY MET'MAP TEAM :

Programmation & Développement : Alexandra Zaïnal
Conception & Développement : Baudouin d'Aumeries
Co-Programmation & Développement : Marc-Olivier Méhu
Soutien technique & logistique : Manuel Goepfert

Contact : metmap@orbifly.com




SOURCES & CREDITS :

   NOAA